sensor_id;sensor_type;location;lat;lon;timestamp;temperature;humidity
13596;DHT22;6868;52.544;13.416;2023-07-20T01:57:26;16.70;99.90
13596;DHT22;6868;52.544;13.416;2023-07-20T01:59:53;16.40;99.90
13596;DHT22;6868;52.544;13.416;2023-07-20T02:02:20;16.50;99.90
13596;DHT22;6868;52.544;13.416;2023-07-20T02:04:47;16.50;99.90
13596;DHT22;6868;52.544;13.416;2023-07-20T02:07:13;16.60;99.90
13596;DHT22;6868;52.544;13.416;2023-07-20T02:09:40;16.50;99.90
13596;DHT22;6868;52.544;13.416;2023-07-20T02:12:07;16.60;99.90
13596;DHT22;6868;52.544;13.416;2023-07-20T02:14:35;16.60;99.90
13596;DHT22;6868;52.544;13.416;2023-07-20T02:17:02;16.50;99.90
13596;DHT22;6868;52.544;13.416;2023-07-20T02:19:29;16.40;99.90
13596;DHT22;6868;52.544;13.416;2023-07-20T02:21:56;16.50;99.90
13596;DHT22;6868;52.544;13.416;2023-07-20T02:24:23;16.40;99.90
13596;DHT22;6868;52.544;13.416;2023-07-20T02:26:53;16.50;99.90
13596;DHT22;6868;52.544;13.416;2023-07-20T02:29:19;16.50;99.90
13596;DHT22;6868;52.544;13.416;2023-07-20T02:31:48;16.50;99.90
13596;DHT22;6868;52.544;13.416;2023-07-20T02:34:15;16.50;99.90
13596;DHT22;6868;52.544;13.416;2023-07-20T02:36:42;16.50;99.90
13596;DHT22;6868;52.544;13.416;2023-07-20T02:39:09;16.40;99.90
13596;DHT22;6868;52.544;13.416;2023-07-20T02:41:35;16.50;99.90
13596;DHT22;6868;52.544;13.416;2023-07-20T02:44:02;16.40;99.90
13596;DHT22;6868;52.544;13.416;2023-07-20T02:46:29;16.40;99.90
13596;DHT22;6868;52.544;13.416;2023-07-20T02:48:57;16.50;99.90
13596;DHT22;6868;52.544;13.416;2023-07-20T02:51:24;16.50;99.90
13596;DHT22;6868;52.544;13.416;2023-07-20T02:53:51;16.40;99.90
13596;DHT22;6868;52.544;13.416;2023-07-20T02:56:19;16.20;99.90
13596;DHT22;6868;52.544;13.416;2023-07-20T02:58:46;16.10;99.90
13596;DHT22;6868;52.544;13.416;2023-07-20T03:01:12;16.10;99.90
13596;DHT22;6868;52.544;13.416;2023-07-20T03:03:41;16.10;99.90
13596;DHT22;6868;52.544;13.416;2023-07-20T03:06:13;15.90;99.90
13596;DHT22;6868;52.544;13.416;2023-07-20T03:08:40;16.00;99.90
13596;DHT22;6868;52.544;13.416;2023-07-20T03:11:12;16.00;99.90
13596;DHT22;6868;52.544;13.416;2023-07-20T03:13:39;16.00;99.90
13596;DHT22;6868;52.544;13.416;2023-07-20T03:16:06;15.90;99.90
13596;DHT22;6868;52.544;13.416;2023-07-20T03:18:36;16.00;99.90
13596;DHT22;6868;52.544;13.416;2023-07-20T03:21:03;16.10;99.90
13596;DHT22;6868;52.544;13.416;2023-07-20T03:23:32;16.10;99.90
13596;DHT22;6868;52.544;13.416;2023-07-20T03:25:59;16.30;99.90
13596;DHT22;6868;52.544;13.416;2023-07-20T03:28:25;16.30;99.90
13596;DHT22;6868;52.544;13.416;2023-07-20T03:30:53;16.20;99.90
13596;DHT22;6868;52.544;13.416;2023-07-20T03:33:20;16.20;99.90
13596;DHT22;6868;52.544;13.416;2023-07-20T03:35:49;16.20;99.90
13596;DHT22;6868;52.544;13.416;2023-07-20T03:38:16;16.20;99.90
13596;DHT22;6868;52.544;13.416;2023-07-20T03:40:50;16.10;99.90
13596;DHT22;6868;52.544;13.416;2023-07-20T03:43:17;16.10;99.90
13596;DHT22;6868;52.544;13.416;2023-07-20T03:45:44;16.20;99.90
13596;DHT22;6868;52.544;13.416;2023-07-20T03:48:13;16.20;99.90
13596;DHT22;6868;52.544;13.416;2023-07-20T03:50:39;16.10;99.90
13596;DHT22;6868;52.544;13.416;2023-07-20T03:53:06;16.20;99.90
13596;DHT22;6868;52.544;13.416;2023-07-20T03:55:33;16.10;99.90
13596;DHT22;6868;52.544;13.416;2023-07-20T03:58:01;16.10;99.90
13596;DHT22;6868;52.544;13.416;2023-07-20T04:00:28;16.10;99.90
13596;DHT22;6868;52.544;13.416;2023-07-20T04:05:22;16.20;99.90
13596;DHT22;6868;52.544;13.416;2023-07-20T04:07:49;16.30;99.90
13596;DHT22;6868;52.544;13.416;2023-07-20T04:10:16;16.30;99.90
13596;DHT22;6868;52.544;13.416;2023-07-20T04:12:43;16.30;99.90
13596;DHT22;6868;52.544;13.416;2023-07-20T04:15:12;16.20;99.90
13596;DHT22;6868;52.544;13.416;2023-07-20T04:17:38;16.30;99.90
13596;DHT22;6868;52.544;13.416;2023-07-20T04:20:06;16.30;99.90
13596;DHT22;6868;52.544;13.416;2023-07-20T04:22:33;16.30;99.90
13596;DHT22;6868;52.544;13.416;2023-07-20T04:25:00;16.30;99.90
13596;DHT22;6868;52.544;13.416;2023-07-20T04:27:27;16.40;99.90
13596;DHT22;6868;52.544;13.416;2023-07-20T04:29:55;16.40;99.90
13596;DHT22;6868;52.544;13.416;2023-07-20T04:32:23;16.30;99.90
13596;DHT22;6868;52.544;13.416;2023-07-20T04:34:50;16.30;99.90
13596;DHT22;6868;52.544;13.416;2023-07-20T04:37:17;16.40;99.90
13596;DHT22;6868;52.544;13.416;2023-07-20T04:39:44;16.50;99.90
13596;DHT22;6868;52.544;13.416;2023-07-20T04:42:14;16.40;99.90
13596;DHT22;6868;52.544;13.416;2023-07-20T04:44:40;16.30;99.90
13596;DHT22;6868;52.544;13.416;2023-07-20T04:47:07;16.40;99.90
13596;DHT22;6868;52.544;13.416;2023-07-20T04:49:36;16.40;99.90
13596;DHT22;6868;52.544;13.416;2023-07-20T04:52:03;16.40;99.90
13596;DHT22;6868;52.544;13.416;2023-07-20T04:54:30;16.50;99.90
13596;DHT22;6868;52.544;13.416;2023-07-20T04:56:56;16.60;99.90
13596;DHT22;6868;52.544;13.416;2023-07-20T04:59:23;16.60;99.90
13596;DHT22;6868;52.544;13.416;2023-07-20T05:01:50;16.80;99.90
13596;DHT22;6868;52.544;13.416;2023-07-20T05:04:17;16.80;99.90
13596;DHT22;6868;52.544;13.416;2023-07-20T05:06:46;16.70;99.90
13596;DHT22;6868;52.544;13.416;2023-07-20T05:09:13;16.70;99.90
13596;DHT22;6868;52.544;13.416;2023-07-20T05:11:40;16.70;99.90
13596;DHT22;6868;52.544;13.416;2023-07-20T05:14:07;16.70;99.90
13596;DHT22;6868;52.544;13.416;2023-07-20T05:16:34;16.90;99.90
13596;DHT22;6868;52.544;13.416;2023-07-20T05:19:00;16.80;99.90
13596;DHT22;6868;52.544;13.416;2023-07-20T05:21:27;16.80;99.90
13596;DHT22;6868;52.544;13.416;2023-07-20T05:23:55;17.00;99.90
13596;DHT22;6868;52.544;13.416;2023-07-20T05:26:22;17.20;99.90
13596;DHT22;6868;52.544;13.416;2023-07-20T05:28:49;17.10;99.90
13596;DHT22;6868;52.544;13.416;2023-07-20T05:31:17;17.20;99.90
13596;DHT22;6868;52.544;13.416;2023-07-20T05:33:45;17.10;99.90
13596;DHT22;6868;52.544;13.416;2023-07-20T05:36:11;17.10;99.90
13596;DHT22;6868;52.544;13.416;2023-07-20T05:38:38;17.30;99.90
13596;DHT22;6868;52.544;13.416;2023-07-20T05:41:06;17.50;99.90
13596;DHT22;6868;52.544;13.416;2023-07-20T05:43:36;17.70;99.90
13596;DHT22;6868;52.544;13.416;2023-07-20T05:46:02;17.90;99.90
13596;DHT22;6868;52.544;13.416;2023-07-20T05:48:30;18.30;99.90
13596;DHT22;6868;52.544;13.416;2023-07-20T05:50:57;18.50;99.90
13596;DHT22;6868;52.544;13.416;2023-07-20T05:53:24;18.70;99.90
13596;DHT22;6868;52.544;13.416;2023-07-20T05:55:53;18.60;99.90
13596;DHT22;6868;52.544;13.416;2023-07-20T05:58:22;18.50;99.90
13596;DHT22;6868;52.544;13.416;2023-07-20T06:00:50;18.70;99.90
13596;DHT22;6868;52.544;13.416;2023-07-20T06:03:17;18.60;99.90
13596;DHT22;6868;52.544;13.416;2023-07-20T06:05:46;18.40;99.90
13596;DHT22;6868;52.544;13.416;2023-07-20T06:08:13;18.40;99.90
13596;DHT22;6868;52.544;13.416;2023-07-20T06:10:40;18.60;99.90
13596;DHT22;6868;52.544;13.416;2023-07-20T06:13:07;18.60;99.90
13596;DHT22;6868;52.544;13.416;2023-07-20T06:15:35;18.30;99.90
13596;DHT22;6868;52.544;13.416;2023-07-20T06:18:03;18.00;99.90
13596;DHT22;6868;52.544;13.416;2023-07-20T06:20:31;18.00;99.90
13596;DHT22;6868;52.544;13.416;2023-07-20T06:22:58;17.90;99.90
13596;DHT22;6868;52.544;13.416;2023-07-20T06:25:25;17.90;99.90
13596;DHT22;6868;52.544;13.416;2023-07-20T06:27:52;18.00;99.90
13596;DHT22;6868;52.544;13.416;2023-07-20T06:30:19;18.00;99.90
13596;DHT22;6868;52.544;13.416;2023-07-20T06:32:47;18.10;99.90
13596;DHT22;6868;52.544;13.416;2023-07-20T06:35:14;18.30;99.90
13596;DHT22;6868;52.544;13.416;2023-07-20T06:37:41;18.40;99.90
13596;DHT22;6868;52.544;13.416;2023-07-20T06:40:11;18.30;99.90
13596;DHT22;6868;52.544;13.416;2023-07-20T06:42:37;18.20;99.90
13596;DHT22;6868;52.544;13.416;2023-07-20T06:45:04;18.00;99.90
13596;DHT22;6868;52.544;13.416;2023-07-20T06:47:31;17.80;99.90
13596;DHT22;6868;52.544;13.416;2023-07-20T06:50:00;18.00;99.90
13596;DHT22;6868;52.544;13.416;2023-07-20T06:52:27;18.20;99.90
13596;DHT22;6868;52.544;13.416;2023-07-20T06:54:54;18.00;99.90
13596;DHT22;6868;52.544;13.416;2023-07-20T06:57:21;17.80;99.90
13596;DHT22;6868;52.544;13.416;2023-07-20T06:59:48;17.80;99.90
13596;DHT22;6868;52.544;13.416;2023-07-20T07:02:15;18.80;99.90
